Time;durP1;ratioP1;P1;durP2;ratioP2;P2;SDS_P1;SDS_P2;PMS_P1;PMS_P2;Temp;Humidity;BMP_temperature;BMP_pressure;BME280_temperature;BME280_humidity;BME280_pressure;Samples;Min_cycle;Max_cycle;Signal;HPM_P1;HPM_P2
2022/04/26 03:36:11;;;;;;;15.32;10.50;;;;;;;19.44;47.32;98400.16;5020123;28;20051;-75
2022/04/26 03:38:41;;;;;;;16.42;11.05;;;;;;;19.64;47.09;98409.38;5003539;28;20079;-74
2022/04/26 03:41:07;;;;;;;15.27;10.73;;;;;;;19.70;46.70;98412.97;5017896;28;20487;-76
2022/04/26 03:43:33;;;;;;;14.60;11.50;;;;;;;19.69;46.52;98398.69;5049683;28;20051;-76
2022/04/26 03:45:59;;;;;;;16.92;10.70;;;;;;;19.91;45.93;98401.44;5000678;28;20044;-76
2022/04/26 03:48:25;;;;;;;20.90;11.32;;;;;;;20.00;45.54;98397.25;4997952;28;20048;-76
2022/04/26 03:50:51;;;;;;;15.68;11.02;;;;;;;20.03;45.43;98407.56;4998758;28;20528;-76
2022/04/26 03:53:17;;;;;;;17.15;10.35;;;;;;;20.06;45.20;98407.84;4982912;28;20060;-76
2022/04/26 03:55:42;;;;;;;13.07;9.95;;;;;;;20.22;45.15;98418.91;4984820;28;20463;-76
2022/04/26 03:58:08;;;;;;;15.52;10.55;;;;;;;20.33;44.93;98417.97;4998961;28;20037;-77
2022/04/26 04:00:34;;;;;;;14.20;10.73;;;;;;;20.33;44.82;98410.69;4998909;28;20045;-75
2022/04/26 04:03:00;;;;;;;14.25;10.55;;;;;;;20.41;44.70;98421.03;5015149;28;20090;-76
2022/04/26 04:05:26;;;;;;;17.75;12.07;;;;;;;20.48;44.92;98427.06;5048070;28;20041;-76
2022/04/26 04:07:52;;;;;;;18.20;11.38;;;;;;;20.45;44.49;98421.38;5014718;28;20110;-75
2022/04/26 04:10:18;;;;;;;18.27;11.63;;;;;;;20.48;44.44;98423.56;4998638;28;20041;-76
2022/04/26 04:12:43;;;;;;;23.30;12.35;;;;;;;20.41;44.56;98433.69;4998780;28;20047;-77
2022/04/26 04:15:09;;;;;;;19.48;11.60;;;;;;;20.40;44.82;98435.59;4999689;28;20056;-77
2022/04/26 04:17:36;;;;;;;16.63;11.82;;;;;;;20.33;45.29;98432.25;4998779;28;20571;-75
2022/04/26 04:20:03;;;;;;;21.30;13.23;;;;;;;20.04;45.82;98425.34;5014437;28;20045;-75
2022/04/26 04:22:29;;;;;;;17.05;12.88;;;;;;;19.95;46.33;98421.44;5015344;28;20056;-77
2022/04/26 04:24:56;;;;;;;17.48;12.98;;;;;;;19.93;45.92;98421.69;5015550;28;20045;-76
2022/04/26 04:27:22;;;;;;;18.30;13.15;;;;;;;19.73;46.76;98418.69;4982501;28;20497;-76
2022/04/26 04:29:47;;;;;;;19.38;14.07;;;;;;;19.69;46.95;98427.50;5030985;28;20063;-76
2022/04/26 04:32:14;;;;;;;16.80;13.38;;;;;;;19.66;46.90;98420.75;5031223;28;20045;-76
2022/04/26 04:34:40;;;;;;;19.33;12.88;;;;;;;19.81;46.95;98418.28;4998671;28;20527;-75
2022/04/26 04:37:05;;;;;;;18.17;12.75;;;;;;;19.93;46.69;98420.88;4998194;28;20135;-77
2022/04/26 04:39:34;;;;;;;19.10;12.63;;;;;;;20.02;46.54;98417.50;4998143;28;20037;-77
2022/04/26 04:42:00;;;;;;;16.85;12.23;;;;;;;20.13;45.97;98418.50;4998271;28;20055;-77
2022/04/26 04:44:27;;;;;;;22.20;12.77;;;;;;;20.28;45.74;98429.47;5017938;28;20037;-80
2022/04/26 04:46:54;;;;;;;16.02;12.13;;;;;;;20.42;45.23;98427.25;5001625;28;20037;-73
2022/04/26 04:49:20;;;;;;;16.70;11.23;;;;;;;20.64;44.37;98410.00;5051356;28;20041;-76
2022/04/26 04:51:47;;;;;;;23.33;13.75;;;;;;;20.92;43.69;98428.69;4986331;28;20041;-78
2022/04/26 04:54:13;;;;;;;16.40;12.13;;;;;;;21.22;43.28;98434.41;5002867;28;20037;-77
2022/04/26 04:56:40;;;;;;;17.08;11.35;;;;;;;21.49;42.72;98423.59;4985775;28;20048;-76
2022/04/26 04:59:07;;;;;;;19.67;11.13;;;;;;;21.63;42.48;98419.41;5001763;28;20845;-77
2022/04/26 05:01:32;;;;;;;16.27;10.73;;;;;;;21.79;41.55;98429.28;5001351;28;20075;-77
2022/04/26 05:03:58;;;;;;;15.52;11.27;;;;;;;21.79;41.27;98423.88;5016294;28;20052;-78
2022/04/26 05:06:24;;;;;;;18.27;11.25;;;;;;;21.82;41.43;98420.66;4999685;28;20041;-76
2022/04/26 05:08:50;;;;;;;19.40;12.10;;;;;;;21.88;40.98;98425.00;4999274;28;20047;-78
2022/04/26 05:11:23;;;;;;;16.35;10.60;;;;;;;21.89;40.98;98415.84;5016491;28;20513;-77
2022/04/26 05:13:49;;;;;;;17.17;10.85;;;;;;;22.10;40.16;98414.88;4984804;28;20041;-77
2022/04/26 05:16:18;;;;;;;16.98;10.90;;;;;;;22.22;39.55;98412.00;5016915;28;20049;-77
2022/04/26 05:18:43;;;;;;;13.80;10.15;;;;;;;22.14;39.37;98410.56;5001876;28;20055;-76
2022/04/26 05:21:10;;;;;;;17.73;10.57;;;;;;;22.02;39.33;98393.75;5000987;28;20400;-78
2022/04/26 05:26:21;;;;;;;16.98;9.98;;;;;;;22.07;39.32;98411.88;5020030;28;20045;-77
2022/04/26 05:28:55;;;;;;;16.02;11.10;;;;;;;22.02;39.53;98409.19;4984706;28;20080;-77
2022/04/26 05:31:22;;;;;;;13.80;10.40;;;;;;;21.99;39.90;98407.78;5002079;28;20045;-76
2022/04/26 05:33:48;;;;;;;16.08;11.40;;;;;;;22.02;39.72;98407.25;4985587;28;20041;-76
2022/04/26 05:36:14;;;;;;;15.55;10.52;;;;;;;22.07;39.32;98393.78;5000882;28;20048;-77
2022/04/26 05:38:41;;;;;;;16.58;10.85;;;;;;;22.16;39.20;98400.31;5016690;28;20053;-77
2022/04/26 05:41:08;;;;;;;12.75;10.25;;;;;;;22.39;38.59;98408.03;5001034;28;20202;-77
2022/04/26 05:43:34;;;;;;;16.10;10.02;;;;;;;22.54;38.26;98410.03;5000901;28;20041;-75
2022/04/26 05:46:01;;;;;;;15.30;9.13;;;;;;;22.66;37.70;98402.50;5000283;28;20055;-77
2022/04/26 05:48:27;;;;;;;13.23;9.43;;;;;;;22.91;37.14;98408.00;5007812;28;20048;-76
2022/04/26 05:50:54;;;;;;;15.48;9.40;;;;;;;23.01;36.64;98405.28;5021343;28;20045;-77
2022/04/26 05:53:20;;;;;;;14.27;8.68;;;;;;;22.90;37.11;98407.16;5037786;28;20037;-76
2022/04/26 05:55:46;;;;;;;16.45;9.10;;;;;;;23.09;36.65;98402.88;5003706;28;20054;-77
2022/04/26 05:58:12;;;;;;;15.15;9.48;;;;;;;23.09;36.70;98408.28;5003580;28;20048;-77
2022/04/26 06:00:38;;;;;;;16.20;9.77;;;;;;;23.00;36.52;98392.84;5004396;28;20091;-77
2022/04/26 06:03:04;;;;;;;12.27;9.18;;;;;;;22.91;36.76;98406.06;5003994;28;20527;-77
2022/04/26 06:05:30;;;;;;;13.48;8.98;;;;;;;22.84;36.52;98404.72;5020517;28;20063;-77
2022/04/26 06:07:56;;;;;;;13.52;9.02;;;;;;;22.85;36.93;98406.31;5004612;28;20040;-77
2022/04/26 06:10:22;;;;;;;14.00;8.55;;;;;;;22.93;36.32;98408.53;5005552;28;20040;-77
2022/04/26 06:12:48;;;;;;;12.85;8.35;;;;;;;22.83;36.11;98412.00;5003320;28;20040;-77
2022/04/26 06:15:17;;;;;;;10.30;7.50;;;;;;;22.70;36.26;98399.00;5019624;28;20451;-77
2022/04/26 06:17:43;;;;;;;10.02;7.82;;;;;;;22.70;36.35;98404.41;5020243;28;20144;-78
2022/04/26 06:20:10;;;;;;;13.05;8.13;;;;;;;22.81;36.42;98397.94;5003403;28;20139;-77
2022/04/26 06:22:36;;;;;;;13.05;8.00;;;;;;;23.02;36.21;98407.75;5036874;28;20055;-77
2022/04/26 06:25:03;;;;;;;12.18;7.78;;;;;;;23.04;36.25;98412.88;5012922;28;20032;-79
2022/04/26 06:27:29;;;;;;;8.68;7.75;;;;;;;23.14;35.80;98419.13;5011392;28;20496;-78
2022/04/26 06:29:55;;;;;;;11.60;7.47;;;;;;;23.33;35.66;98418.66;5023365;28;20055;-79
2022/04/26 06:32:21;;;;;;;13.90;8.40;;;;;;;23.44;35.52;98428.41;5037186;28;20534;-77
2022/04/26 06:34:48;;;;;;;10.95;8.40;;;;;;;23.60;35.54;98428.19;5019627;28;20131;-76
2022/04/26 06:37:14;;;;;;;12.23;8.73;;;;;;;23.53;35.70;98429.50;5020260;28;20040;-78
2022/04/26 06:39:41;;;;;;;12.98;8.35;;;;;;;23.79;35.19;98433.84;5019166;28;20048;-72
2022/04/26 06:42:07;;;;;;;11.43;8.00;;;;;;;24.08;34.65;98437.66;5019354;28;20068;-73
2022/04/26 06:44:33;;;;;;;14.73;9.70;;;;;;;24.52;34.04;98431.31;5019419;28;20055;-75
2022/04/26 06:46:58;;;;;;;14.93;7.97;;;;;;;24.92;32.92;98435.81;5018982;28;20040;-75
2022/04/26 06:49:26;;;;;;;10.48;7.45;;;;;;;25.09;32.66;98430.00;5019536;28;20048;-75
2022/04/26 06:51:52;;;;;;;12.15;7.80;;;;;;;24.92;32.48;98422.22;5019367;28;20040;-75
2022/04/26 06:54:18;;;;;;;10.25;7.60;;;;;;;24.53;33.02;98426.69;5003088;28;20599;-76
2022/04/26 06:56:46;;;;;;;12.95;7.80;;;;;;;24.25;33.07;98432.72;5003239;28;20037;-76
2022/04/26 06:59:13;;;;;;;9.75;7.85;;;;;;;24.28;33.39;98429.50;5018059;28;20508;-73
2022/04/26 07:01:39;;;;;;;11.38;6.85;;;;;;;24.31;33.24;98421.59;5051137;28;20062;-75
2022/04/26 07:04:05;;;;;;;14.07;7.78;;;;;;;24.55;33.20;98432.66;5034667;28;20090;-76
2022/04/26 07:06:31;;;;;;;12.45;7.75;;;;;;;25.11;32.35;98434.06;4999944;28;20040;-76
2022/04/26 07:08:57;;;;;;;11.10;6.45;;;;;;;24.94;31.58;98436.31;5019778;28;20437;-76
2022/04/26 07:11:23;;;;;;;9.88;7.05;;;;;;;24.44;32.05;98433.78;5019767;28;20036;-76
2022/04/26 07:13:49;;;;;;;14.50;7.00;;;;;;;23.97;32.04;98436.06;5018653;28;20044;-75
2022/04/26 07:16:15;;;;;;;11.07;6.63;;;;;;;23.60;32.63;98430.06;5035513;28;20118;-74
2022/04/26 07:18:43;;;;;;;12.82;6.95;;;;;;;23.42;33.53;98433.31;5019017;28;20098;-75
2022/04/26 07:21:08;;;;;;;10.30;6.63;;;;;;;23.56;33.49;98431.69;5019103;28;20057;-75
2022/04/26 07:23:34;;;;;;;10.02;6.10;;;;;;;23.74;32.97;98433.88;5002518;28;20040;-75
2022/04/26 07:26:02;;;;;;;9.38;6.20;;;;;;;23.88;32.32;98437.66;5002878;28;20078;-75
2022/04/26 07:28:30;;;;;;;12.65;6.40;;;;;;;24.57;31.18;98438.63;5037009;28;20503;-77
2022/04/26 07:30:56;;;;;;;10.35;5.82;;;;;;;25.25;30.09;98435.06;5035376;28;20463;-74
2022/04/26 07:36:06;;;;;;;8.90;4.18;;;;;;;26.86;27.42;98423.53;5020902;28;20174;-75
2022/04/26 07:38:32;;;;;;;9.60;6.18;;;;;;;27.28;26.61;98419.97;5018202;28;20040;-75
2022/04/26 07:40:57;;;;;;;8.85;5.80;;;;;;;27.48;26.10;98420.47;5002088;28;20519;-75
2022/04/26 07:43:24;;;;;;;8.32;5.13;;;;;;;28.02;25.63;98410.91;5035359;28;20055;-74
2022/04/26 07:45:49;;;;;;;10.57;5.22;;;;;;;28.24;24.70;98414.56;5001757;28;20040;-75
2022/04/26 07:48:17;;;;;;;12.82;6.40;;;;;;;27.90;25.62;98422.28;4997988;28;20457;-74
2022/04/26 07:50:47;;;;;;;10.13;5.68;;;;;;;27.52;26.31;98412.53;4982715;28;20570;-76
2022/04/26 07:53:13;;;;;;;9.90;6.00;;;;;;;27.60;26.34;98409.13;5015539;28;20040;-76
2022/04/26 07:55:39;;;;;;;10.00;6.05;;;;;;;27.51;25.78;98414.44;4998732;28;20062;-76
2022/04/26 07:58:05;;;;;;;9.05;5.38;;;;;;;27.39;26.31;98410.53;5014881;28;20041;-76
2022/04/26 08:00:31;;;;;;;14.18;5.38;;;;;;;27.23;26.18;98409.13;4998171;28;20505;-76
2022/04/26 08:02:57;;;;;;;7.25;4.80;;;;;;;27.23;26.00;98404.47;4998245;28;20056;-76
2022/04/26 08:05:23;;;;;;;10.77;5.10;;;;;;;27.06;26.42;98409.59;4999219;28;20052;-77
2022/04/26 08:07:49;;;;;;;10.77;5.05;;;;;;;26.92;26.33;98403.28;4982879;28;20052;-77
2022/04/26 08:10:15;;;;;;;8.60;5.40;;;;;;;26.29;27.26;98399.94;4998054;28;20048;-76
2022/04/26 08:12:43;;;;;;;6.40;5.07;;;;;;;25.97;28.04;98396.97;4981511;28;20102;-77
2022/04/26 08:15:10;;;;;;;9.18;4.45;;;;;;;25.84;27.65;98413.16;5014609;28;20060;-78
2022/04/26 08:17:36;;;;;;;8.10;4.25;;;;;;;25.85;27.53;98412.88;4998792;28;20049;-77
2022/04/26 08:20:06;;;;;;;8.73;4.72;;;;;;;25.87;27.78;98391.66;5001775;28;20127;-78
2022/04/26 08:22:32;;;;;;;7.13;4.82;;;;;;;25.58;28.25;98407.13;5035138;28;20045;-77
2022/04/26 08:27:42;;;;;;;10.05;4.50;;;;;;;24.58;29.70;98405.78;5004982;28;20039;-78
2022/04/26 08:30:09;;;;;;;9.68;4.63;;;;;;;24.63;29.91;98422.03;5002101;28;20125;-74
2022/04/26 08:32:44;;;;;;;7.82;5.10;;;;;;;24.95;29.66;98418.94;5018721;28;20527;-74
2022/04/26 08:35:13;;;;;;;6.28;3.90;;;;;;;25.20;28.96;98409.81;4986160;28;20536;-75
2022/04/26 08:37:40;;;;;;;7.38;4.40;;;;;;;25.58;28.72;98419.91;5034894;28;20095;-77
2022/04/26 08:40:07;;;;;;;10.45;4.80;;;;;;;25.79;28.09;98410.47;5018348;28;20123;-74
2022/04/26 08:42:41;;;;;;;6.60;4.05;;;;;;;25.58;27.86;98398.16;5002245;28;20052;-73
2022/04/26 08:45:12;;;;;;;8.60;4.60;;;;;;;25.99;28.03;98416.59;5035824;28;20067;-75
2022/04/26 08:53:08;;;;;;;8.40;4.90;;;;;;;25.30;28.90;98401.59;5015927;28;20043;-76
2022/04/26 08:56:01;;;;;;;11.60;5.18;;;;;;;25.78;28.53;98404.25;5053400;28;20131;-75
2022/04/26 08:58:32;;;;;;;11.63;4.43;;;;;;;26.17;27.65;98415.84;5053654;28;20123;-73
2022/04/26 09:01:28;;;;;;;7.28;3.88;;;;;;;26.86;26.48;98409.91;5053885;28;20040;-75
2022/04/26 09:03:55;;;;;;;5.13;3.22;;;;;;;27.68;24.88;98406.50;5002241;28;20037;-75
2022/04/26 09:06:43;;;;;;;5.28;3.00;;;;;;;28.21;23.86;98393.34;5018244;28;20041;-77
2022/04/26 09:09:18;;;;;;;5.57;3.40;;;;;;;28.69;23.21;98415.63;5023840;28;20044;-76
2022/04/26 09:11:45;;;;;;;8.52;3.60;;;;;;;28.60;23.58;98407.31;5035409;28;20503;-76
2022/04/26 09:14:32;;;;;;;6.55;3.30;;;;;;;27.98;23.26;98405.22;5002098;28;20045;-76
2022/04/26 09:17:16;;;;;;;6.22;3.67;;;;;;;27.32;23.80;98391.03;5035604;28;20056;-77
2022/04/26 09:19:46;;;;;;;5.45;2.90;;;;;;;27.31;23.63;98408.47;5021848;28;20047;-76
2022/04/26 09:22:17;;;;;;;4.07;2.50;;;;;;;27.31;23.93;98408.47;5038028;28;20048;-76
2022/04/26 09:24:55;;;;;;;4.07;2.67;;;;;;;27.22;23.20;98402.03;5022273;28;20169;-76
2022/04/26 09:27:23;;;;;;;7.93;2.63;;;;;;;26.63;24.10;98396.28;5037786;28;20071;-76
2022/04/26 09:29:49;;;;;;;8.88;2.50;;;;;;;26.75;23.84;98400.25;5036250;28;20131;-75
2022/04/26 09:32:15;;;;;;;2.80;1.70;;;;;;;26.79;23.41;98408.63;5019934;28;20151;-77
2022/04/26 09:34:42;;;;;;;5.82;2.40;;;;;;;26.69;22.94;98397.88;5021562;28;20044;-77
2022/04/26 09:37:08;;;;;;;3.97;2.40;;;;;;;25.33;24.75;98401.06;5021738;28;20044;-76
2022/04/26 09:39:34;;;;;;;6.93;1.98;;;;;;;25.24;25.22;98402.72;5004996;28;20428;-76
2022/04/26 09:42:04;;;;;;;4.50;2.05;;;;;;;25.50;24.73;98409.63;5021334;28;20186;-75
2022/04/26 09:44:33;;;;;;;3.30;1.88;;;;;;;25.57;24.71;98396.53;5020904;28;20460;-75
2022/04/26 09:46:59;;;;;;;5.00;2.10;;;;;;;25.50;24.68;98402.28;5037359;28;20131;-73
2022/04/26 09:49:26;;;;;;;2.55;1.90;;;;;;;25.45;24.86;98382.50;5000687;28;20456;-76
2022/04/26 09:51:56;;;;;;;4.05;2.33;;;;;;;25.53;25.13;98401.72;5016735;28;20463;-76
2022/04/26 09:54:22;;;;;;;6.93;3.00;;;;;;;25.34;25.21;98370.88;5054775;28;20044;-75
2022/04/26 09:56:49;;;;;;;3.17;2.47;;;;;;;25.13;25.77;98407.41;5020476;28;20962;-75
2022/04/26 09:59:20;;;;;;;5.43;3.67;;;;;;;24.99;26.36;98390.09;5020505;28;20040;-75
2022/04/26 10:01:47;;;;;;;6.00;3.15;;;;;;;24.71;26.82;98415.22;5020106;28;20412;-75
2022/04/26 10:04:17;;;;;;;8.88;2.83;;;;;;;24.56;27.13;98396.28;5020426;28;20055;-75
2022/04/26 10:06:43;;;;;;;3.83;2.27;;;;;;;24.39;26.65;98402.03;5036903;28;20047;-74
2022/04/26 10:09:10;;;;;;;5.28;2.70;;;;;;;24.53;26.98;98418.53;5036430;28;20139;-76
2022/04/26 10:11:37;;;;;;;5.25;2.60;;;;;;;24.64;27.19;98399.25;5052818;28;20102;-73
2022/04/26 10:14:06;;;;;;;4.70;2.50;;;;;;;24.97;26.93;98411.31;5019337;28;20044;-75
2022/04/26 10:16:33;;;;;;;6.13;2.55;;;;;;;24.86;26.42;98402.41;5003623;28;20139;-76
2022/04/26 10:19:07;;;;;;;3.47;2.03;;;;;;;25.03;26.12;98414.81;4999285;28;20139;-75
2022/04/26 10:21:38;;;;;;;5.03;2.63;;;;;;;24.89;26.23;98411.91;5031225;28;20048;-77
2022/04/26 10:24:19;;;;;;;5.20;2.50;;;;;;;25.27;26.00;98416.56;5015962;28;20043;-76
2022/04/26 10:26:46;;;;;;;4.28;2.22;;;;;;;25.29;26.01;98395.38;5014943;28;20049;-75
2022/04/26 10:29:15;;;;;;;5.10;2.60;;;;;;;24.92;25.94;98412.13;5014816;28;20048;-75
2022/04/26 10:31:42;;;;;;;3.55;2.30;;;;;;;24.73;25.98;98399.50;5031245;28;20060;-76
2022/04/26 10:34:20;;;;;;;3.97;2.30;;;;;;;25.09;25.54;98389.25;5029280;28;20817;-75
2022/04/26 10:36:51;;;;;;;5.45;2.65;;;;;;;24.91;26.08;98415.13;5012955;28;20048;-75
2022/04/26 10:39:25;;;;;;;3.83;2.20;;;;;;;25.12;25.48;98416.66;5029602;28;20151;-74
2022/04/26 10:41:53;;;;;;;3.17;2.13;;;;;;;25.32;26.08;98404.84;4996459;28;20505;-74
2022/04/26 10:44:22;;;;;;;4.90;2.63;;;;;;;25.30;25.97;98396.16;4996087;28;20531;-75
2022/04/26 10:47:07;;;;;;;3.35;2.20;;;;;;;25.26;25.84;98405.97;5029521;28;20120;-74
2022/04/26 10:49:35;;;;;;;4.15;2.13;;;;;;;24.08;26.76;98415.97;4996047;28;20052;-76
2022/04/26 10:52:19;;;;;;;4.88;2.50;;;;;;;24.44;26.79;98409.34;5011826;28;20041;-76
2022/04/26 10:55:07;;;;;;;5.93;2.45;;;;;;;24.15;26.88;98417.31;5012767;28;20417;-75
2022/04/26 10:57:41;;;;;;;3.55;2.28;;;;;;;24.45;26.69;98410.97;5013070;28;20199;-75
2022/04/26 11:00:17;;;;;;;3.83;2.40;;;;;;;24.22;26.76;98400.72;5030083;28;20509;-76
2022/04/26 11:02:48;;;;;;;3.95;2.28;;;;;;;23.83;27.18;98384.25;5029558;28;20045;-76
2022/04/26 11:05:16;;;;;;;3.65;2.15;;;;;;;24.07;27.69;98411.63;5009858;28;20778;-76
2022/04/26 11:07:52;;;;;;;3.50;2.30;;;;;;;23.77;28.07;98408.91;4998477;28;20155;-76
2022/04/26 11:10:23;;;;;;;7.88;2.40;;;;;;;24.26;27.94;98409.94;5037326;28;20040;-75
2022/04/26 11:12:50;;;;;;;7.88;2.88;;;;;;;24.44;27.67;98404.75;5030137;28;20961;-76
2022/04/26 11:15:21;;;;;;;4.10;2.47;;;;;;;24.71;27.34;98391.63;5039562;28;20059;-80
2022/04/26 11:17:50;;;;;;;;;;;;;;;24.92;27.29;98419.50;5050752;28;20147;-79
2022/04/26 11:20:20;;;;;;;5.95;2.42;;;;;;;24.51;26.89;98397.09;5018602;28;19924;-78
2022/04/26 11:22:48;;;;;;;4.40;2.47;;;;;;;24.42;26.94;98416.94;5001322;28;20040;-73
2022/04/26 11:28:06;;;;;;;9.65;3.05;;;;;;;25.31;25.67;98408.66;5032971;28;20044;-74
2022/04/26 11:30:43;;;;;;;5.05;2.40;;;;;;;25.39;25.49;98414.34;5035108;28;20055;-73
2022/04/26 11:33:11;;;;;;;6.38;2.28;;;;;;;25.49;25.58;98421.63;5051728;28;20071;-71
2022/04/26 11:35:38;;;;;;;4.55;2.60;;;;;;;25.73;25.12;98409.72;5069304;28;20051;-72
2022/04/26 11:38:13;;;;;;;7.28;2.75;;;;;;;26.02;24.98;98401.59;5029147;28;20641;-71
2022/04/26 11:40:41;;;;;;;4.00;2.28;;;;;;;25.89;24.92;98427.50;5018102;28;20458;-73
2022/04/26 11:43:08;;;;;;;4.22;2.00;;;;;;;25.95;24.76;98404.63;5032492;28;20082;-73
2022/04/26 11:45:35;;;;;;;2.65;2.00;;;;;;;26.04;25.01;98396.66;4998611;28;20049;-72
2022/04/26 11:48:08;;;;;;;3.87;2.13;;;;;;;26.36;24.71;98407.75;5018746;28;20058;-73
2022/04/26 11:50:33;;;;;;;4.07;2.45;;;;;;;26.26;24.82;98403.22;5050385;28;20040;-72
2022/04/26 11:53:01;;;;;;;3.47;2.47;;;;;;;26.43;24.56;98408.25;4999986;28;20044;-71
2022/04/26 11:55:30;;;;;;;6.75;2.65;;;;;;;26.29;24.72;98397.22;5034907;28;20082;-73
2022/04/26 11:58:25;;;;;;;3.88;2.70;;;;;;;26.42;24.34;98398.44;5017865;28;20064;-71
2022/04/26 12:01:20;;;;;;;3.17;2.70;;;;;;;26.37;24.87;98391.13;5015023;28;20052;-71
2022/04/26 12:03:52;;;;;;;7.63;3.15;;;;;;;25.79;25.44;98391.44;5017421;28;20135;-71
2022/04/26 12:06:26;;;;;;;10.25;3.58;;;;;;;25.81;25.48;98390.06;5069227;28;20500;-73
2022/04/26 12:08:59;;;;;;;4.03;2.78;;;;;;;25.74;25.83;98388.78;5017999;28;20052;-72
2022/04/26 12:11:29;;;;;;;5.55;2.58;;;;;;;25.27;26.56;98388.56;5034550;28;20051;-72
2022/04/26 12:14:06;;;;;;;6.03;2.67;;;;;;;25.35;26.29;98379.84;5051483;28;20041;-73
2022/04/26 12:16:36;;;;;;;4.50;2.72;;;;;;;25.52;26.17;98382.97;5050976;28;20639;-74
2022/04/26 12:19:04;;;;;;;6.63;3.40;;;;;;;25.37;26.46;98375.75;5034652;28;20094;-72
2022/04/26 12:21:43;;;;;;;3.42;2.55;;;;;;;25.73;26.00;98377.09;5051324;28;20087;-73
2022/04/26 12:24:21;;;;;;;6.60;2.80;;;;;;;25.59;25.93;98373.41;5034151;28;20505;-71
2022/04/26 12:27:26;;;;;;;9.18;2.67;;;;;;;25.64;25.78;98386.13;5018474;28;20036;-72
2022/04/26 12:29:53;;;;;;;4.82;2.42;;;;;;;25.35;26.02;98383.38;4939104;28;20077;-72
2022/04/26 12:32:20;;;;;;;3.30;2.45;;;;;;;25.34;25.95;98381.75;4938061;28;20105;-73
2022/04/26 12:34:59;;;;;;;6.70;2.38;;;;;;;25.33;25.53;98385.56;4979356;28;20047;-71
2022/04/26 12:37:32;;;;;;;5.30;2.80;;;;;;;25.13;26.19;98366.66;5017445;28;20041;-73
2022/04/26 12:40:05;;;;;;;5.75;2.85;;;;;;;25.31;26.17;98385.00;5033324;28;20528;-73
2022/04/26 12:42:34;;;;;;;6.70;2.53;;;;;;;25.39;25.56;98373.56;5018265;28;20068;-72
2022/04/26 12:45:24;;;;;;;3.30;2.45;;;;;;;25.63;25.51;98379.88;5017756;28;20508;-71
2022/04/26 12:50:52;;;;;;;4.53;2.58;;;;;;;25.58;25.23;98390.81;5034096;28;20071;-72
2022/04/26 12:53:28;;;;;;;8.30;2.85;;;;;;;25.85;24.84;98374.78;5034559;28;20050;-70
2022/04/26 12:56:06;;;;;;;11.30;2.65;;;;;;;25.96;24.98;98368.16;5014109;28;20059;-71
2022/04/26 12:58:37;;;;;;;5.32;2.70;;;;;;;26.12;24.74;98385.97;5017732;28;20055;-72
2022/04/26 13:01:05;;;;;;;8.75;2.88;;;;;;;26.12;25.10;98391.41;5018076;28;20093;-72
2022/04/26 13:03:32;;;;;;;7.82;2.70;;;;;;;26.05;25.10;98388.22;5018350;28;20060;-72
2022/04/26 13:06:09;;;;;;;9.95;3.03;;;;;;;26.29;25.40;98391.75;5020808;28;20044;-72
2022/04/26 13:08:36;;;;;;;17.50;3.42;;;;;;;26.06;25.19;98376.22;5020324;28;20041;-72
2022/04/26 13:11:02;;;;;;;10.80;3.25;;;;;;;26.01;25.08;98389.91;5020316;28;20393;-72
2022/04/26 13:13:28;;;;;;;8.85;3.10;;;;;;;25.99;25.30;98394.81;5020143;28;20107;-71
2022/04/26 13:15:54;;;;;;;8.85;3.30;;;;;;;25.77;25.00;98386.28;5019868;28;20557;-72
2022/04/26 13:18:20;;;;;;;10.13;3.30;;;;;;;25.82;25.44;98399.03;5020525;28;20051;-72
2022/04/26 13:20:46;;;;;;;6.60;2.92;;;;;;;25.70;25.66;98398.59;5036496;28;20151;-71
2022/04/26 13:23:13;;;;;;;6.03;3.22;;;;;;;25.57;25.48;98393.81;5037568;28;20049;-72
2022/04/26 13:25:40;;;;;;;6.60;2.95;;;;;;;25.28;25.75;98382.06;5050570;28;20118;-72
2022/04/26 13:28:06;;;;;;;5.95;3.08;;;;;;;25.24;25.98;98378.25;5056292;28;20044;-71
2022/04/26 13:30:33;;;;;;;5.60;2.85;;;;;;;25.36;26.06;98390.44;5057349;28;20066;-72
2022/04/26 13:32:59;;;;;;;4.18;3.20;;;;;;;25.25;26.01;98386.13;5040227;28;20040;-71
2022/04/26 13:35:25;;;;;;;6.60;3.08;;;;;;;25.36;26.00;98390.44;5039507;28;20082;-72
2022/04/26 13:37:52;;;;;;;6.70;3.00;;;;;;;25.53;26.13;98387.31;5040131;28;20040;-72
2022/04/26 13:40:19;;;;;;;6.45;3.47;;;;;;;25.55;25.71;98394.09;5056888;28;20040;-72
2022/04/26 13:42:45;;;;;;;6.35;3.38;;;;;;;25.63;25.38;98384.53;5056599;28;20040;-71
2022/04/26 13:45:12;;;;;;;11.02;3.25;;;;;;;25.75;24.84;98380.34;5054409;28;20108;-72
2022/04/26 13:47:39;;;;;;;7.90;3.58;;;;;;;25.92;24.60;98393.50;5019669;28;20044;-71
2022/04/26 13:50:07;;;;;;;9.80;3.35;;;;;;;25.90;24.56;98387.53;5036035;28;20512;-71
2022/04/26 13:52:38;;;;;;;10.13;3.20;;;;;;;25.92;24.70;98383.44;5052967;28;20045;-71
2022/04/26 13:55:06;;;;;;;5.07;3.43;;;;;;;25.98;24.62;98384.19;5020137;28;20049;-72
2022/04/26 13:57:33;;;;;;;10.38;3.22;;;;;;;25.81;24.54;98376.47;5034823;28;20515;-72
2022/04/26 13:59:59;;;;;;;10.02;3.25;;;;;;;25.88;24.86;98376.13;5002142;28;20416;-72
2022/04/26 14:02:29;;;;;;;14.70;3.55;;;;;;;25.85;24.87;98373.97;5033268;28;20048;-71
2022/04/26 14:04:55;;;;;;;11.93;3.75;;;;;;;25.86;24.79;98367.44;4991288;28;20056;-71
2022/04/26 14:07:24;;;;;;;5.88;3.33;;;;;;;25.93;24.34;98379.63;5036131;28;20492;-72
2022/04/26 14:09:50;;;;;;;8.75;3.28;;;;;;;25.68;24.46;98379.84;5002960;28;20048;-72
2022/04/26 14:12:18;;;;;;;6.72;3.00;;;;;;;25.44;25.00;98376.25;5051245;28;20040;-71
2022/04/26 14:22:58;;;;;;;8.18;3.58;;;;;;;25.28;25.12;98374.69;5021816;28;20564;-72
2022/04/26 14:25:24;;;;;;;6.53;3.10;;;;;;;25.41;25.11;98386.88;5002889;28;20139;-72
2022/04/26 14:27:51;;;;;;;7.28;3.15;;;;;;;25.55;24.59;98388.66;5002929;28;20263;-72
2022/04/26 14:30:20;;;;;;;13.80;3.97;;;;;;;25.56;24.43;98384.84;5051643;28;20044;-72
2022/04/26 14:32:45;;;;;;;7.40;3.45;;;;;;;25.44;24.41;98383.59;5017929;28;20083;-71
2022/04/26 14:35:13;;;;;;;7.55;2.55;;;;;;;25.51;23.98;98397.69;5018392;28;20111;-73
2022/04/26 14:37:41;;;;;;;6.45;2.60;;;;;;;25.44;24.18;98391.75;5068997;28;20512;-73
2022/04/26 14:40:09;;;;;;;11.73;3.15;;;;;;;25.37;24.19;98381.19;5032852;28;20048;-73
2022/04/26 14:42:35;;;;;;;14.45;3.60;;;;;;;25.32;24.18;98389.38;5016509;28;20076;-72
2022/04/26 14:45:02;;;;;;;12.35;3.25;;;;;;;25.16;24.79;98389.72;5016071;28;20139;-73
2022/04/26 14:47:29;;;;;;;5.65;2.92;;;;;;;24.91;24.34;98382.53;5033353;28;20178;-73
2022/04/26 14:49:59;;;;;;;8.38;2.90;;;;;;;24.75;24.45;98391.88;5000460;28;20138;-72
2022/04/26 14:52:25;;;;;;;10.32;3.00;;;;;;;24.46;24.45;98396.31;5017705;28;20052;-73
2022/04/26 14:54:51;;;;;;;7.10;3.00;;;;;;;24.43;24.79;98386.81;5017251;28;20040;-75
2022/04/26 14:57:17;;;;;;;5.20;3.20;;;;;;;24.17;24.88;98381.75;5033724;28;20130;-73
2022/04/26 14:59:47;;;;;;;10.63;3.28;;;;;;;24.13;25.24;98365.22;5022792;28;20106;-71
2022/04/26 15:02:17;;;;;;;9.63;3.45;;;;;;;24.14;25.38;98388.53;5017537;28;20040;-72
2022/04/26 15:04:43;;;;;;;8.50;3.03;;;;;;;24.04;25.59;98387.75;5050320;28;20404;-71
2022/04/26 15:07:09;;;;;;;9.95;3.50;;;;;;;23.78;25.93;98384.25;5031183;28;20044;-72
2022/04/26 15:09:45;;;;;;;8.07;4.22;;;;;;;23.57;26.04;98355.50;5012964;28;20040;-72
2022/04/26 15:17:42;;;;;;;9.60;4.45;;;;;;;23.75;26.14;98400.25;5019933;28;20071;-72
2022/04/26 15:20:09;;;;;;;11.00;4.93;;;;;;;23.65;26.05;98390.22;5034798;28;20101;-72
2022/04/26 15:22:39;;;;;;;9.68;3.95;;;;;;;23.61;26.21;98388.31;5035320;28;20480;-72
2022/04/26 15:25:06;;;;;;;10.82;4.30;;;;;;;23.24;26.56;98329.78;5034847;28;20048;-73
2022/04/26 15:27:41;;;;;;;13.63;3.50;;;;;;;23.76;26.35;98401.84;5018392;28;20052;-72
2022/04/26 15:30:09;;;;;;;9.77;3.70;;;;;;;23.74;26.52;98398.63;5017542;28;20068;-73
2022/04/26 15:32:35;;;;;;;7.75;3.47;;;;;;;23.70;26.56;98405.66;5017745;28;20040;-72
2022/04/26 15:35:01;;;;;;;10.20;3.53;;;;;;;23.60;26.27;98390.22;5012766;28;20041;-73
2022/04/26 15:37:28;;;;;;;11.73;3.50;;;;;;;23.62;26.08;98408.94;4998307;28;20048;-72
2022/04/26 15:39:54;;;;;;;15.52;3.25;;;;;;;23.70;26.26;98416.50;4982511;28;20098;-72
2022/04/26 15:42:21;;;;;;;14.98;3.08;;;;;;;23.59;26.41;98396.72;4982262;28;20119;-72
2022/04/26 15:44:48;;;;;;;7.72;3.05;;;;;;;23.58;26.15;98395.09;5014220;28;20072;-72